Weather at OR Tambo International Airport

Public forecast

Using degrees Celsius for public forecast. Weather courtesy of forecast.io.

Current aviation weather report (METAR) for OR Tambo International Airport

Report is more than 6 hours old.

2022/11/14 15:30 (retrieved 2 years ago)

FAOR 141530Z 06005KT 020V080 CAVOK 21/09 Q1024 NOSIG

Aviation forecast (TAF) for OR Tambo International Airport

Forecast is more than 12 hours old.

2023/02/22 18:00 (retrieved 1 year ago)

TAF FAOR 221600Z 2218/2324 VRB03KT CAVOK TX24/2313Z TN13/2303Z PROB30 TEMPO 2302/2305 5000 BR BKN008 FM230600 VRB03KT 9999 SCT016 FM230800 VRB03KT CAVOK